createdAt,value
2022-10-02T00:01:25.932Z,92.75
2022-10-02T00:03:53.239Z,92.69
2022-10-02T00:06:26.002Z,92.54
2022-10-02T00:08:59.276Z,92.52
2022-10-02T00:11:40.381Z,92.77
2022-10-02T00:14:11.761Z,92.04
2022-10-02T00:16:42.254Z,91.76
2022-10-02T00:19:11.127Z,92.11
2022-10-02T00:22:19.072Z,92.04
2022-10-02T00:25:01.484Z,91.60
2022-10-02T00:27:40.066Z,90.93
2022-10-02T00:30:11.956Z,90.32
2022-10-02T00:32:54.666Z,91.05
2022-10-02T00:35:34.413Z,91.78
2022-10-02T00:38:10.129Z,92.59
2022-10-02T00:40:58.881Z,92.88
2022-10-02T00:43:44.904Z,92.84
2022-10-02T00:46:22.559Z,92.63
2022-10-02T00:49:18.625Z,92.80
2022-10-02T00:52:19.896Z,92.61
2022-10-02T00:54:52.208Z,92.15
2022-10-02T00:57:24.651Z,92.62
2022-10-02T01:00:15.037Z,92.95
2022-10-02T01:03:00.502Z,92.60
2022-10-02T01:05:27.374Z,91.68
2022-10-02T01:07:55.432Z,90.62
2022-10-02T01:10:23.285Z,90.95
2022-10-02T01:12:50.188Z,91.08
2022-10-02T01:15:19.544Z,90.66
2022-10-02T01:17:48.078Z,90.68
2022-10-02T01:20:17.623Z,90.54
2022-10-02T01:22:56.700Z,89.95
2022-10-02T01:25:23.330Z,89.72
2022-10-02T01:27:52.479Z,89.57
2022-10-02T01:30:20.672Z,89.48
2022-10-02T01:32:53.599Z,89.02
2022-10-02T01:35:22.903Z,88.42
2022-10-02T01:37:51.059Z,88.35
2022-10-02T01:40:32.432Z,88.24
2022-10-02T01:43:02.854Z,87.58
2022-10-02T01:45:36.198Z,87.89
2022-10-02T01:48:34.000Z,87.77
2022-10-02T01:51:25.136Z,87.91
2022-10-02T01:54:10.283Z,87.96
2022-10-02T01:57:12.967Z,88.12
2022-10-02T02:00:04.573Z,87.57
2022-10-02T02:02:41.179Z,86.70
2022-10-02T02:05:32.183Z,87.04
2022-10-02T02:08:13.844Z,86.71
2022-10-02T02:10:55.862Z,86.78
2022-10-02T02:13:35.592Z,86.59
2022-10-02T02:16:13.364Z,86.75
2022-10-02T02:18:46.298Z,86.89
2022-10-02T02:21:22.152Z,87.26
2022-10-02T02:23:49.823Z,87.70
2022-10-02T02:26:19.758Z,87.97
2022-10-02T02:28:54.974Z,88.62
2022-10-02T02:31:27.265Z,88.65
2022-10-02T02:34:09.552Z,89.28
2022-10-02T02:36:42.448Z,89.37
2022-10-02T02:39:19.596Z,90.27
2022-10-02T02:41:57.840Z,91.00
2022-10-02T02:44:30.214Z,91.25
2022-10-02T02:47:18.863Z,91.95
2022-10-02T02:50:16.626Z,92.36
2022-10-02T02:52:57.285Z,91.19
2022-10-02T02:55:28.751Z,91.14
2022-10-02T02:58:13.444Z,91.39
2022-10-02T03:00:40.144Z,91.53
2022-10-02T03:03:07.039Z,92.40
2022-10-02T03:05:35.376Z,91.62
2022-10-02T03:08:05.300Z,93.15
2022-10-02T03:11:05.309Z,96.25
2022-10-02T03:14:01.293Z,97.41
2022-10-02T03:16:47.027Z,98.02
2022-10-02T03:19:34.532Z,98.90
2022-10-02T03:22:41.359Z,99.51
2022-10-02T03:25:26.160Z,99.78
2022-10-02T03:28:54.271Z,99.18
2022-10-02T03:31:23.403Z,97.93
2022-10-02T03:33:53.621Z,98.94
2022-10-02T03:36:21.596Z,98.84
2022-10-02T03:39:00.650Z,99.43
2022-10-02T03:41:32.964Z,99.18
2022-10-02T03:43:59.439Z,98.93
2022-10-02T03:46:26.009Z,98.57
2022-10-02T03:48:52.479Z,96.57
2022-10-02T03:51:18.822Z,97.59
2022-10-02T03:53:45.345Z,97.40
2022-10-02T03:56:28.681Z,96.93
2022-10-02T03:59:01.152Z,96.21
2022-10-02T04:01:32.472Z,94.67
2022-10-02T04:04:04.261Z,95.13
2022-10-02T04:06:41.680Z,96.08
2022-10-02T04:09:14.636Z,94.89
2022-10-02T04:11:49.024Z,95.96
2022-10-02T04:14:30.143Z,95.15
2022-10-02T04:17:15.965Z,94.75
2022-10-02T04:19:50.034Z,93.80
2022-10-02T04:22:39.802Z,94.20
2022-10-02T04:25:19.713Z,93.81
2022-10-02T04:28:10.906Z,94.92
2022-10-02T04:30:37.410Z,94.17
2022-10-02T04:33:12.862Z,94.32
2022-10-02T04:36:02.606Z,94.02
2022-10-02T04:38:41.852Z,93.43
2022-10-02T04:41:27.223Z,93.19
2022-10-02T04:44:13.067Z,92.15
2022-10-02T04:46:51.318Z,92.45
2022-10-02T04:49:32.765Z,92.42
2022-10-02T04:52:28.060Z,92.85
2022-10-02T04:55:13.218Z,91.91
2022-10-02T04:58:04.039Z,92.93
2022-10-02T05:00:57.551Z,92.55
2022-10-02T05:03:39.351Z,92.91
2022-10-02T05:06:38.665Z,93.10
2022-10-02T05:09:33.403Z,93.37
2022-10-02T05:12:21.997Z,93.42
2022-10-02T05:14:55.758Z,93.60
2022-10-02T05:17:53.862Z,94.79
2022-10-02T05:20:35.331Z,95.11
2022-10-02T05:23:04.547Z,95.49
2022-10-02T05:25:46.805Z,95.09
2022-10-02T05:28:27.321Z,95.36
2022-10-02T05:31:31.308Z,95.17
2022-10-02T05:34:21.175Z,95.41
2022-10-02T05:37:04.360Z,95.19
2022-10-02T05:39:39.338Z,94.89
2022-10-02T05:42:16.662Z,94.43
2022-10-02T05:44:50.645Z,94.69
2022-10-02T05:47:25.106Z,94.90
2022-10-02T05:49:56.310Z,95.07
2022-10-02T05:53:05.996Z,94.94
2022-10-02T05:56:00.366Z,94.91
2022-10-02T05:58:51.264Z,94.23
2022-10-02T06:01:30.664Z,94.01
2022-10-02T06:04:12.999Z,93.74
2022-10-02T06:06:48.224Z,93.90
2022-10-02T06:09:26.249Z,94.05
2022-10-02T06:12:12.456Z,94.47
2022-10-02T06:14:58.070Z,94.92
2022-10-02T06:17:30.911Z,95.80
2022-10-02T06:20:03.834Z,95.71
2022-10-02T06:22:41.283Z,97.10
2022-10-02T06:25:27.733Z,96.93
2022-10-02T06:28:35.494Z,96.93
2022-10-02T06:31:13.022Z,95.55
2022-10-02T06:33:39.459Z,95.34
2022-10-02T06:36:13.585Z,94.46
2022-10-02T06:38:48.575Z,93.98
2022-10-02T06:41:42.044Z,93.13
2022-10-02T06:44:30.836Z,92.28
2022-10-02T06:47:08.680Z,91.96
2022-10-02T06:49:53.581Z,92.65
2022-10-02T06:52:41.713Z,91.68
2022-10-02T06:55:45.249Z,91.46
2022-10-02T06:58:30.024Z,90.04
2022-10-02T07:01:15.786Z,89.96
2022-10-02T07:04:24.504Z,89.98
2022-10-02T07:07:09.876Z,89.32
2022-10-02T07:10:00.755Z,90.01
2022-10-02T07:12:53.883Z,88.80
2022-10-02T07:15:40.444Z,88.40
2022-10-02T07:18:22.744Z,87.82
2022-10-02T07:21:10.133Z,88.17
2022-10-02T07:23:47.368Z,88.46
2022-10-02T07:26:28.946Z,88.39
2022-10-02T07:29:06.495Z,87.98
2022-10-02T07:32:10.837Z,86.33
2022-10-02T07:34:52.153Z,86.06
2022-10-02T07:37:36.663Z,85.31
2022-10-02T07:40:30.335Z,84.79
2022-10-02T07:43:04.370Z,86.08
2022-10-02T07:45:42.104Z,86.73
2022-10-02T07:48:28.538Z,86.49
2022-10-02T07:51:30.468Z,87.08
2022-10-02T07:54:14.104Z,87.98
2022-10-02T07:56:41.556Z,87.95
2022-10-02T07:59:16.037Z,88.74
2022-10-02T08:01:45.155Z,88.13
2022-10-02T08:04:18.702Z,88.61
2022-10-02T08:06:47.224Z,88.08
2022-10-02T08:09:24.209Z,87.01
2022-10-02T08:12:09.207Z,86.32
2022-10-02T08:14:45.338Z,85.59
2022-10-02T08:17:32.334Z,86.07
2022-10-02T08:20:13.360Z,84.84
2022-10-02T08:22:46.172Z,85.85
2022-10-02T08:25:12.492Z,87.28
2022-10-02T08:27:52.597Z,87.28
2022-10-02T08:30:19.158Z,85.47
2022-10-02T08:32:47.766Z,84.01
2022-10-02T08:35:19.621Z,83.88
2022-10-02T08:38:14.106Z,84.15
2022-10-02T08:41:00.511Z,84.88
2022-10-02T08:44:01.889Z,86.84
2022-10-02T08:47:18.697Z,87.79
2022-10-02T08:49:53.152Z,89.54
2022-10-02T08:52:38.392Z,91.34
2022-10-02T08:55:39.557Z,92.25
2022-10-02T08:58:36.222Z,93.42
2022-10-02T09:01:28.390Z,93.06
2022-10-02T09:04:31.989Z,93.94
2022-10-02T09:07:10.622Z,94.67
2022-10-02T09:09:43.099Z,95.79
2022-10-02T09:12:21.410Z,95.08
2022-10-02T09:14:56.792Z,94.32
2022-10-02T09:18:17.712Z,93.12
2022-10-02T09:21:13.808Z,92.25
2022-10-02T09:24:14.118Z,90.55
2022-10-02T09:26:43.587Z,90.28
2022-10-02T09:29:37.981Z,92.09
2022-10-02T09:32:07.512Z,90.65
2022-10-02T09:35:16.569Z,89.70
2022-10-02T09:37:55.212Z,89.63
2022-10-02T09:40:46.644Z,87.91
2022-10-02T09:43:34.756Z,88.15
2022-10-02T09:46:27.090Z,88.44
2022-10-02T09:48:59.271Z,86.02
2022-10-02T09:51:57.536Z,82.72
2022-10-02T09:54:47.730Z,81.86
2022-10-02T09:57:46.924Z,79.39
2022-10-02T10:00:22.340Z,77.89
2022-10-02T10:03:10.433Z,77.95
2022-10-02T10:05:58.667Z,76.75
2022-10-02T10:09:16.291Z,74.50
2022-10-02T10:12:05.614Z,68.57
2022-10-02T10:15:29.394Z,65.70
2022-10-02T10:18:32.647Z,55.76
2022-10-02T10:21:07.997Z,50.14
2022-10-02T10:24:31.453Z,50.03
2022-10-02T10:27:38.743Z,46.66
2022-10-02T10:30:33.232Z,42.48
2022-10-02T10:33:11.335Z,42.76
2022-10-02T10:36:05.546Z,41.58
2022-10-02T10:38:56.397Z,39.35
2022-10-02T10:41:50.636Z,38.37
2022-10-02T10:44:27.407Z,38.42
2022-10-02T10:47:08.268Z,35.46
2022-10-02T10:50:02.600Z,35.23
2022-10-02T10:53:03.880Z,32.85
2022-10-02T10:55:57.208Z,32.31
2022-10-02T10:59:04.984Z,32.71
2022-10-02T11:01:56.007Z,33.73
2022-10-02T11:05:03.151Z,34.75
2022-10-02T11:07:45.793Z,35.37
2022-10-02T11:10:29.008Z,36.71
2022-10-02T11:13:27.714Z,38.89
2022-10-02T11:16:13.169Z,41.37
2022-10-02T11:18:52.501Z,41.42
2022-10-02T11:21:58.167Z,43.29
2022-10-02T11:25:12.550Z,46.50
2022-10-02T11:27:57.676Z,49.75
2022-10-02T11:30:54.891Z,50.64
2022-10-02T11:33:51.013Z,50.53
2022-10-02T11:36:41.607Z,50.29
2022-10-02T11:39:15.466Z,50.44
2022-10-02T11:42:26.280Z,52.40
2022-10-02T11:45:19.980Z,54.56
2022-10-02T11:47:57.444Z,56.32
2022-10-02T11:50:54.860Z,56.60
2022-10-02T11:53:23.624Z,57.88
2022-10-02T11:56:31.632Z,58.14
2022-10-02T11:59:18.227Z,59.96
2022-10-02T12:01:55.619Z,60.90
2022-10-02T12:04:35.128Z,62.03
2022-10-02T12:07:42.332Z,63.27
2022-10-02T12:10:30.366Z,64.76
2022-10-02T12:13:20.980Z,67.68
2022-10-02T12:16:21.607Z,69.98
2022-10-02T12:19:06.372Z,72.92
2022-10-02T12:22:30.047Z,75.75
2022-10-02T12:25:21.414Z,75.96
2022-10-02T12:28:13.097Z,69.92
2022-10-02T12:30:49.868Z,64.96
2022-10-02T12:33:27.199Z,64.97
2022-10-02T12:36:05.321Z,60.89
2022-10-02T12:39:00.797Z,59.75
2022-10-02T12:41:38.854Z,52.67
2022-10-02T12:44:32.634Z,52.79
2022-10-02T12:47:22.861Z,49.66
2022-10-02T12:50:21.880Z,46.37
2022-10-02T12:53:07.132Z,40.21
2022-10-02T12:55:52.299Z,35.26
2022-10-02T12:58:39.523Z,36.30
2022-10-02T13:01:30.842Z,33.50
2022-10-02T13:04:39.056Z,32.24
2022-10-02T13:07:08.280Z,28.67
2022-10-02T13:09:53.175Z,26.69
2022-10-02T13:12:34.490Z,25.92
2022-10-02T13:15:23.146Z,25.59
2022-10-02T13:17:59.015Z,27.80
2022-10-02T13:20:39.731Z,31.69
2022-10-02T13:23:47.784Z,35.96
2022-10-02T13:26:29.789Z,37.87
2022-10-02T13:29:18.079Z,33.14
2022-10-02T13:31:57.701Z,29.26
2022-10-02T13:34:42.740Z,28.04
2022-10-02T13:37:09.124Z,25.89
2022-10-02T13:40:02.545Z,26.30
2022-10-02T13:42:38.023Z,26.57
2022-10-02T13:45:07.343Z,26.90
2022-10-02T13:47:44.087Z,26.51
2022-10-02T13:50:19.958Z,25.49
2022-10-02T13:53:08.148Z,27.52
2022-10-02T13:55:43.089Z,28.82
2022-10-02T13:58:34.515Z,31.00
2022-10-02T14:01:26.771Z,33.75
2022-10-02T14:04:14.706Z,35.70
2022-10-02T14:06:48.716Z,38.41
2022-10-02T14:09:42.851Z,39.31
2022-10-02T14:12:27.538Z,41.70
2022-10-02T14:15:03.569Z,44.39
2022-10-02T14:17:44.073Z,46.55
2022-10-02T14:20:26.937Z,47.01
2022-10-02T14:23:19.577Z,46.90
2022-10-02T14:26:04.847Z,47.75
2022-10-02T14:28:55.404Z,48.87
2022-10-02T14:31:37.846Z,49.25
2022-10-02T14:34:38.451Z,50.39
2022-10-02T14:37:37.838Z,51.17
2022-10-02T14:40:17.118Z,51.04
2022-10-02T14:43:01.864Z,51.95
2022-10-02T14:46:03.253Z,53.40
2022-10-02T14:48:56.476Z,53.02
2022-10-02T14:51:45.447Z,53.71
2022-10-02T14:54:31.535Z,54.35
2022-10-02T14:57:39.424Z,54.04
2022-10-02T15:00:15.912Z,55.04
2022-10-02T15:03:18.964Z,54.56
2022-10-02T15:06:22.572Z,55.05
2022-10-02T15:09:01.773Z,55.58
2022-10-02T15:11:37.381Z,55.06
2022-10-02T15:14:19.572Z,56.39
2022-10-02T15:17:07.828Z,56.29
2022-10-02T15:19:39.659Z,57.17
2022-10-02T15:22:20.163Z,56.50
2022-10-02T15:24:55.108Z,56.55
2022-10-02T15:27:31.416Z,56.66
2022-10-02T15:30:15.847Z,57.53
2022-10-02T15:32:59.093Z,57.71
2022-10-02T15:35:54.564Z,58.17
2022-10-02T15:38:26.298Z,58.39
2022-10-02T15:41:11.598Z,58.93
2022-10-02T15:44:06.672Z,58.49
2022-10-02T15:46:49.600Z,59.00
2022-10-02T15:49:53.638Z,58.96
2022-10-02T15:52:40.511Z,59.68
2022-10-02T15:55:41.501Z,59.31
2022-10-02T15:58:21.067Z,59.12
2022-10-02T16:01:12.385Z,59.43
2022-10-02T16:03:53.494Z,60.19
2022-10-02T16:06:53.428Z,60.54
2022-10-02T16:09:38.467Z,61.13
2022-10-02T16:12:27.935Z,61.87
2022-10-02T16:15:16.789Z,62.35
2022-10-02T16:18:19.955Z,61.93
2022-10-02T16:20:56.656Z,63.26
2022-10-02T16:23:54.193Z,62.96
2022-10-02T16:26:32.232Z,64.25
2022-10-02T16:29:23.832Z,63.83
2022-10-02T16:32:16.685Z,64.19
2022-10-02T16:35:22.174Z,64.64
2022-10-02T16:37:59.968Z,65.21
2022-10-02T16:40:36.436Z,65.39
2022-10-02T16:43:37.366Z,65.36
2022-10-02T16:46:12.959Z,65.79
2022-10-02T16:48:55.946Z,66.53
2022-10-02T16:51:40.334Z,67.36
2022-10-02T16:54:23.090Z,67.68
2022-10-02T16:57:04.672Z,67.55
2022-10-02T16:59:51.619Z,67.88
2022-10-02T17:02:26.148Z,68.62
2022-10-02T17:04:58.186Z,68.71
2022-10-02T17:07:30.787Z,68.84
2022-10-02T17:10:18.823Z,69.25
2022-10-02T17:13:26.983Z,68.66
2022-10-02T17:16:07.415Z,69.17
2022-10-02T17:18:43.741Z,69.98
2022-10-02T17:21:12.932Z,70.13
2022-10-02T17:24:19.927Z,70.01
2022-10-02T17:27:03.556Z,69.34
2022-10-02T17:29:39.071Z,70.49
2022-10-02T17:32:08.762Z,70.51
2022-10-02T17:34:46.510Z,70.09
2022-10-02T17:37:16.140Z,69.60
2022-10-02T17:40:01.396Z,70.04
2022-10-02T17:42:51.810Z,70.66
2022-10-02T17:45:42.951Z,70.76
2022-10-02T17:48:15.486Z,70.95
2022-10-02T17:51:00.211Z,71.66
2022-10-02T17:54:04.946Z,71.59
2022-10-02T17:56:49.837Z,71.37
2022-10-02T17:59:30.643Z,71.62
2022-10-02T18:02:09.406Z,71.84
2022-10-02T18:04:39.757Z,72.13
2022-10-02T18:07:30.989Z,72.53
2022-10-02T18:10:03.840Z,72.46
2022-10-02T18:13:03.579Z,72.06
2022-10-02T18:15:39.836Z,72.25
2022-10-02T18:18:40.318Z,72.47
2022-10-02T18:21:28.310Z,72.56
2022-10-02T18:24:17.429Z,72.76
2022-10-02T18:27:01.257Z,72.61
2022-10-02T18:29:46.497Z,72.52
2022-10-02T18:32:36.102Z,72.14
2022-10-02T18:35:15.271Z,71.93
2022-10-02T18:37:58.828Z,72.21
2022-10-02T18:40:49.260Z,72.03
2022-10-02T18:43:47.514Z,72.41
2022-10-02T18:46:25.939Z,72.25
2022-10-02T18:49:30.499Z,72.76
2022-10-02T18:52:18.210Z,72.74
2022-10-02T18:55:05.969Z,72.56
2022-10-02T18:58:04.317Z,72.02
2022-10-02T19:01:00.082Z,72.53
2022-10-02T19:03:48.284Z,72.64
2022-10-02T19:06:31.163Z,72.57
2022-10-02T19:09:03.990Z,72.57
2022-10-02T19:11:32.877Z,72.96
2022-10-02T19:14:02.135Z,73.12
2022-10-02T19:16:31.053Z,73.44
2022-10-02T19:19:20.701Z,73.34
2022-10-02T19:21:47.908Z,73.49
2022-10-02T19:24:23.312Z,73.54
2022-10-02T19:26:56.260Z,73.30
2022-10-02T19:29:37.131Z,73.09
2022-10-02T19:32:13.200Z,73.16
2022-10-02T19:34:42.046Z,73.58
2022-10-02T19:37:15.109Z,73.74
2022-10-02T19:39:48.873Z,74.26
2022-10-02T19:42:22.989Z,75.11
2022-10-02T19:44:53.375Z,75.95
2022-10-02T19:47:27.340Z,75.82
2022-10-02T19:49:59.072Z,75.53
2022-10-02T19:52:29.705Z,75.95
2022-10-02T19:54:59.894Z,75.61
2022-10-02T19:57:31.711Z,74.93
2022-10-02T20:00:00.945Z,75.26
2022-10-02T20:02:32.501Z,74.68
2022-10-02T20:05:02.102Z,75.67
2022-10-02T20:07:31.287Z,75.68
2022-10-02T20:10:02.992Z,75.00
2022-10-02T20:12:39.905Z,75.15
2022-10-02T20:15:59.242Z,75.44
2022-10-02T20:18:26.095Z,75.03
2022-10-02T20:20:59.384Z,75.50
2022-10-02T20:23:31.743Z,75.65
2022-10-02T20:26:07.030Z,75.94
2022-10-02T20:28:51.982Z,75.96
2022-10-02T20:31:35.991Z,76.32
2022-10-02T20:34:13.805Z,75.43
2022-10-02T20:37:05.842Z,75.61
2022-10-02T20:39:40.748Z,75.63
2022-10-02T20:42:19.835Z,76.10
2022-10-02T20:44:46.436Z,75.76
2022-10-02T20:47:31.667Z,75.97
2022-10-02T20:50:21.496Z,76.13
2022-10-02T20:53:06.293Z,75.97
2022-10-02T20:55:56.090Z,76.14
2022-10-02T20:58:58.714Z,76.89
2022-10-02T21:01:44.031Z,76.48
2022-10-02T21:04:49.135Z,76.55
2022-10-02T21:07:20.646Z,76.62
2022-10-02T21:10:14.853Z,76.28
2022-10-02T21:13:08.106Z,76.84
2022-10-02T21:15:46.180Z,76.77
2022-10-02T21:18:21.316Z,77.12
2022-10-02T21:21:12.705Z,77.26
2022-10-02T21:23:54.269Z,77.35
2022-10-02T21:26:40.250Z,77.77
2022-10-02T21:29:17.296Z,77.50
2022-10-02T21:32:01.603Z,78.03
2022-10-02T21:34:59.174Z,77.86
2022-10-02T21:37:39.355Z,77.59
2022-10-02T21:40:29.384Z,78.01
2022-10-02T21:43:17.264Z,77.79
2022-10-02T21:46:05.553Z,77.93
2022-10-02T21:49:04.918Z,77.93
2022-10-02T21:52:09.026Z,78.74
2022-10-02T21:55:11.989Z,78.76
2022-10-02T21:58:00.699Z,78.21
2022-10-02T22:00:28.710Z,78.62
2022-10-02T22:03:29.075Z,78.31
2022-10-02T22:06:12.462Z,78.88
2022-10-02T22:08:44.588Z,78.61
2022-10-02T22:11:21.491Z,79.13
2022-10-02T22:13:53.201Z,79.00
2022-10-02T22:16:36.291Z,79.55
2022-10-02T22:19:20.660Z,79.17
2022-10-02T22:22:05.431Z,79.71
2022-10-02T22:24:51.768Z,79.10
2022-10-02T22:27:23.667Z,78.82
2022-10-02T22:29:55.386Z,79.09
2022-10-02T22:33:01.722Z,79.16
2022-10-02T22:35:59.367Z,79.64
2022-10-02T22:38:36.349Z,79.93
2022-10-02T22:41:06.918Z,80.10
2022-10-02T22:43:44.314Z,80.29
2022-10-02T22:46:40.301Z,80.23
2022-10-02T22:49:25.121Z,79.57
2022-10-02T22:52:00.263Z,79.98
2022-10-02T22:54:32.860Z,79.28
2022-10-02T22:57:03.173Z,80.00
2022-10-02T22:59:37.847Z,79.44
2022-10-02T23:02:22.228Z,79.40
2022-10-02T23:05:05.849Z,79.57
2022-10-02T23:07:51.152Z,79.16
2022-10-02T23:10:39.714Z,79.33
2022-10-02T23:13:20.035Z,79.64
2022-10-02T23:16:08.120Z,79.75
2022-10-02T23:18:40.853Z,79.21
2022-10-02T23:21:13.152Z,80.32
2022-10-02T23:23:55.868Z,80.35
2022-10-02T23:26:48.584Z,79.72
2022-10-02T23:29:15.154Z,79.81
2022-10-02T23:31:54.020Z,80.18
2022-10-02T23:34:37.006Z,79.37
2022-10-02T23:37:25.203Z,80.03
2022-10-02T23:39:51.586Z,79.12
2022-10-02T23:42:35.316Z,79.66
2022-10-02T23:45:24.071Z,79.74
2022-10-02T23:48:04.181Z,79.88
2022-10-02T23:50:46.984Z,79.98
2022-10-02T23:53:49.565Z,79.46
2022-10-02T23:56:32.032Z,79.29
2022-10-02T23:59:17.322Z,79.53
